Time;durP1;ratioP1;P1;durP2;ratioP2;P2;SDS_P1;SDS_P2;PMS_P1;PMS_P2;Temp;Humidity;BMP_temperature;BMP_pressure;BME280_temperature;BME280_humidity;BME280_pressure;Samples;Min_cycle;Max_cycle;Signal;HPM_P1;HPM_P2
2022/08/07 04:01:16;;;;;;;0.90;0.90;;;16.80;80.40;;;;;;5582646;23;20644;-66
2022/08/07 04:03:43;;;;;;;1.43;1.30;;;16.80;81.20;;;;;;4977305;28;20774;-66
2022/08/07 04:06:10;;;;;;;1.20;1.20;;;16.80;81.30;;;;;;4978022;28;20461;-66
2022/08/07 04:08:40;;;;;;;1.00;1.00;;;16.70;81.60;;;;;;4984182;28;20454;-66
2022/08/07 04:11:08;;;;;;;2.13;1.23;;;16.80;82.50;;;;;;4983704;28;20501;-65
2022/08/07 04:13:36;;;;;;;1.23;1.20;;;16.70;82.70;;;;;;4984119;28;20465;-66
2022/08/07 04:16:03;;;;;;;1.40;1.30;;;16.70;83.10;;;;;;4979519;28;20487;-66
2022/08/07 04:18:31;;;;;;;1.30;1.20;;;16.70;83.80;;;;;;4978926;28;20950;-66
2022/08/07 04:20:58;;;;;;;2.50;1.27;;;16.70;84.30;;;;;;4979032;28;20478;-66
2022/08/07 04:23:25;;;;;;;1.50;1.40;;;16.60;84.50;;;;;;4977843;28;20459;-66
2022/08/07 04:25:53;;;;;;;1.30;1.07;;;16.60;85.20;;;;;;4976660;28;20945;-66
2022/08/07 04:28:20;;;;;;;1.80;1.50;;;16.70;85.10;;;;;;4976837;28;20797;-66
2022/08/07 04:30:48;;;;;;;3.70;1.50;;;16.60;85.00;;;;;;4976712;28;20479;-66
2022/08/07 04:33:16;;;;;;;1.70;1.50;;;16.60;85.60;;;;;;4976525;28;20465;-66
2022/08/07 04:35:46;;;;;;;1.30;1.30;;;16.60;86.20;;;;;;4976869;28;20451;-66
2022/08/07 04:38:13;;;;;;;1.47;1.37;;;16.70;85.90;;;;;;4976694;28;20642;-66
2022/08/07 04:40:42;;;;;;;1.50;1.40;;;16.70;86.00;;;;;;4976513;28;20474;-66
2022/08/07 04:43:08;;;;;;;2.30;1.47;;;16.70;85.90;;;;;;4976551;28;20488;-66
2022/08/07 04:45:43;;;;;;;2.30;1.57;;;16.80;87.10;;;;;;4976550;28;20459;-66
2022/08/07 04:48:20;;;;;;;1.43;1.43;;;16.80;87.90;;;;;;4976285;28;20914;-67
2022/08/07 04:50:56;;;;;;;1.90;1.30;;;16.90;87.70;;;;;;4976476;28;20486;-66
2022/08/07 04:53:31;;;;;;;1.43;1.43;;;16.90;88.20;;;;;;4976481;28;20450;-66
2022/08/07 04:56:05;;;;;;;1.40;1.40;;;16.90;88.50;;;;;;4976768;28;20449;-67
2022/08/07 04:58:37;;;;;;;1.80;1.70;;;17.00;88.70;;;;;;4976287;28;20535;-67
2022/08/07 05:01:13;;;;;;;4.47;1.77;;;17.10;89.30;;;;;;4975970;28;20487;-66
2022/08/07 05:03:46;;;;;;;1.70;1.60;;;17.00;89.80;;;;;;4975822;28;20900;-66
2022/08/07 05:06:18;;;;;;;1.87;1.77;;;17.00;90.20;;;;;;4976075;28;20446;-66
2022/08/07 05:08:50;;;;;;;2.40;2.20;;;17.00;90.40;;;;;;4976224;28;20461;-66
2022/08/07 05:11:23;;;;;;;2.70;2.10;;;17.00;90.70;;;;;;4975966;28;20513;-65
2022/08/07 05:13:59;;;;;;;1.90;1.80;;;17.10;91.00;;;;;;4975958;28;20439;-66
2022/08/07 05:16:29;;;;;;;2.70;2.60;;;17.10;91.00;;;;;;4975753;28;20446;-66
2022/08/07 05:19:02;;;;;;;2.13;2.03;;;17.20;91.30;;;;;;4976108;28;20462;-65
2022/08/07 05:21:32;;;;;;;1.90;1.90;;;17.20;91.50;;;;;;4975620;28;21012;-66
2022/08/07 05:24:01;;;;;;;2.30;2.10;;;17.30;91.60;;;;;;4975784;28;20439;-66
2022/08/07 05:26:32;;;;;;;2.83;2.30;;;17.40;91.80;;;;;;4975685;28;20509;-66
2022/08/07 05:29:02;;;;;;;2.93;2.70;;;17.40;91.70;;;;;;4975487;28;20450;-65
2022/08/07 05:31:32;;;;;;;3.27;3.07;;;17.40;92.40;;;;;;4975612;28;20475;-66
2022/08/07 05:34:00;;;;;;;3.00;2.70;;;17.50;92.50;;;;;;4975776;28;20442;-67
2022/08/07 05:36:28;;;;;;;2.63;2.53;;;17.60;92.60;;;;;;4975585;28;20458;-66
2022/08/07 05:38:57;;;;;;;3.13;2.67;;;17.70;92.70;;;;;;4975592;28;20459;-66
2022/08/07 05:41:25;;;;;;;3.10;2.80;;;17.80;93.00;;;;;;4975419;28;20474;-66
2022/08/07 05:43:54;;;;;;;2.83;2.57;;;18.00;93.30;;;;;;4975495;28;20454;-66
2022/08/07 05:46:22;;;;;;;3.00;2.90;;;18.10;93.00;;;;;;4975492;28;20455;-66
2022/08/07 05:48:50;;;;;;;4.30;3.17;;;18.10;92.80;;;;;;4975326;28;20458;-66
2022/08/07 05:51:17;;;;;;;3.03;2.90;;;18.20;93.00;;;;;;4975206;28;20475;-66
2022/08/07 05:53:44;;;;;;;3.50;3.20;;;18.20;93.30;;;;;;4975246;28;20469;-65
2022/08/07 05:56:15;;;;;;;2.70;2.50;;;18.40;93.40;;;;;;4975344;28;20454;-65
2022/08/07 05:58:45;;;;;;;3.07;2.87;;;18.40;93.10;;;;;;4975386;28;20462;-65
2022/08/07 06:01:13;;;;;;;3.17;2.87;;;18.60;93.00;;;;;;4975427;28;20499;-65
2022/08/07 06:03:44;;;;;;;3.97;3.67;;;18.60;93.10;;;;;;4975172;28;20461;-66
2022/08/07 06:06:11;;;;;;;4.70;3.03;;;18.60;93.00;;;;;;4975310;28;20459;-65
2022/08/07 06:08:40;;;;;;;3.60;3.40;;;18.70;93.40;;;;;;4974979;28;20968;-65
2022/08/07 06:11:07;;;;;;;3.80;3.13;;;18.80;93.50;;;;;;4976220;28;20502;-65
2022/08/07 06:13:35;;;;;;;4.20;3.80;;;18.90;93.70;;;;;;4975637;28;20965;-66
2022/08/07 06:16:03;;;;;;;3.73;3.43;;;19.10;94.20;;;;;;4975601;28;20455;-66
2022/08/07 06:18:31;;;;;;;3.93;3.73;;;19.30;93.70;;;;;;4974939;28;20478;-66
2022/08/07 06:20:59;;;;;;;4.13;3.73;;;19.40;93.90;;;;;;4974873;28;20466;-66
2022/08/07 06:23:26;;;;;;;3.77;3.57;;;19.70;93.80;;;;;;4974885;28;20455;-66
2022/08/07 06:25:53;;;;;;;3.63;3.43;;;19.80;93.10;;;;;;4976139;28;20458;-66
2022/08/07 06:28:19;;;;;;;5.10;3.73;;;20.20;93.20;;;;;;4978256;28;20754;-66
2022/08/07 06:30:47;;;;;;;4.03;3.70;;;20.60;92.00;;;;;;4980749;28;20477;-66
2022/08/07 06:33:14;;;;;;;4.00;3.80;;;21.10;91.60;;;;;;4981750;28;20482;-66
2022/08/07 06:35:41;;;;;;;5.43;4.00;;;21.30;91.30;;;;;;4980570;28;20549;-66
2022/08/07 06:38:07;;;;;;;3.80;3.47;;;21.70;90.40;;;;;;4974665;28;20479;-66
2022/08/07 06:40:40;;;;;;;4.00;3.70;;;22.30;89.20;;;;;;4974708;28;20481;-66
2022/08/07 06:43:09;;;;;;;5.80;3.93;;;22.90;87.20;;;;;;4974439;28;20497;-67
2022/08/07 06:45:37;;;;;;;4.60;3.70;;;23.20;85.30;;;;;;4974988;28;20461;-66
2022/08/07 06:48:05;;;;;;;3.20;3.00;;;23.50;86.30;;;;;;4974748;28;20505;-66
2022/08/07 06:50:34;;;;;;;3.70;2.80;;;23.90;83.80;;;;;;4974516;28;20501;-67
2022/08/07 06:53:02;;;;;;;3.80;3.60;;;24.60;82.80;;;;;;4974639;28;20461;-67
2022/08/07 06:55:32;;;;;;;4.07;3.77;;;24.90;79.30;;;;;;4974539;28;20480;-67
2022/08/07 06:58:01;;;;;;;3.50;3.30;;;25.20;79.10;;;;;;4975295;28;20501;-67
2022/08/07 07:00:30;;;;;;;3.77;3.47;;;25.50;77.90;;;;;;4974352;28;20465;-67
2022/08/07 07:02:58;;;;;;;3.40;3.20;;;26.00;76.40;;;;;;4974615;28;20831;-67
2022/08/07 07:05:26;;;;;;;3.73;3.20;;;26.40;74.60;;;;;;4974473;28;20469;-67
2022/08/07 07:07:52;;;;;;;3.97;3.67;;;26.70;72.70;;;;;;4974191;28;20848;-67
2022/08/07 07:10:27;;;;;;;5.23;3.40;;;27.20;72.60;;;;;;4974980;28;20523;-67
2022/08/07 07:12:58;;;;;;;3.30;3.10;;;27.60;72.40;;;;;;4974455;28;20446;-67
2022/08/07 07:15:28;;;;;;;3.30;3.10;;;27.90;70.30;;;;;;4974465;28;20474;-67
2022/08/07 07:18:02;;;;;;;3.63;3.43;;;28.00;70.00;;;;;;4974365;28;20462;-67
2022/08/07 07:20:35;;;;;;;3.30;3.00;;;27.90;69.60;;;;;;4974785;28;20443;-67
2022/08/07 07:23:02;;;;;;;3.50;3.30;;;28.00;68.40;;;;;;4974385;28;20439;-67
2022/08/07 07:25:30;;;;;;;2.97;2.87;;;28.40;68.10;;;;;;4973998;28;20496;-67
2022/08/07 07:28:01;;;;;;;3.40;3.20;;;28.80;65.80;;;;;;4974263;28;20491;-67
2022/08/07 07:30:32;;;;;;;3.37;2.90;;;29.00;65.40;;;;;;4973921;28;21021;-67
2022/08/07 07:33:01;;;;;;;3.63;3.27;;;29.60;63.60;;;;;;4974245;28;20443;-67
2022/08/07 07:35:28;;;;;;;3.27;3.07;;;29.90;61.70;;;;;;4974371;28;20458;-67
2022/08/07 07:38:00;;;;;;;3.40;3.20;;;29.80;61.70;;;;;;4974134;28;20485;-67
2022/08/07 07:40:29;;;;;;;6.00;3.23;;;30.20;61.00;;;;;;4975939;28;20820;-67
2022/08/07 07:42:58;;;;;;;2.60;2.40;;;30.40;60.00;;;;;;4977586;28;20460;-67
2022/08/07 07:45:28;;;;;;;2.33;2.23;;;30.50;59.80;;;;;;4977546;28;20481;-66
2022/08/07 07:47:58;;;;;;;2.57;2.37;;;30.60;62.30;;;;;;4977651;28;20439;-67
2022/08/07 07:50:27;;;;;;;3.10;2.67;;;31.00;58.90;;;;;;4977493;28;20545;-66
2022/08/07 07:52:56;;;;;;;2.90;2.70;;;31.10;58.30;;;;;;4977314;28;20464;-67
2022/08/07 07:55:26;;;;;;;2.67;2.53;;;31.00;57.70;;;;;;4977192;28;20660;-67
2022/08/07 07:57:55;;;;;;;2.27;2.17;;;31.00;57.70;;;;;;4977458;28;20478;-67
2022/08/07 08:00:25;;;;;;;2.07;1.97;;;31.30;57.20;;;;;;4977459;28;20459;-67
2022/08/07 08:02:55;;;;;;;4.03;2.83;;;31.50;56.40;;;;;;4977952;28;20447;-67
2022/08/07 08:05:23;;;;;;;1.97;1.77;;;31.60;56.40;;;;;;4977478;28;20469;-68
2022/08/07 08:07:51;;;;;;;2.23;2.13;;;32.00;54.70;;;;;;4977405;28;20457;-67
2022/08/07 08:10:21;;;;;;;2.00;1.90;;;32.40;53.10;;;;;;4977374;28;20454;-68
2022/08/07 08:12:50;;;;;;;2.00;1.90;;;32.60;53.30;;;;;;4978797;28;20447;-66
2022/08/07 08:15:17;;;;;;;2.57;1.67;;;32.80;53.30;;;;;;4978757;28;20992;-66
2022/08/07 08:17:44;;;;;;;1.37;1.30;;;33.10;51.40;;;;;;4978057;28;20837;-67
2022/08/07 08:20:14;;;;;;;2.27;1.40;;;33.10;48.40;;;;;;4977231;28;20450;-66
2022/08/07 08:28:21;;;;;;;2.30;1.40;;;33.70;45.80;;;;;;4977274;28;20430;-67
2022/08/07 08:30:52;;;;;;;1.20;1.17;;;33.70;45.00;;;;;;4977332;28;20512;-67
2022/08/07 08:33:20;;;;;;;2.03;1.23;;;33.50;43.70;;;;;;4977096;28;20783;-67
2022/08/07 08:35:49;;;;;;;0.80;0.80;;;33.30;43.80;;;;;;4976909;28;20438;-67
2022/08/07 08:38:18;;;;;;;1.27;1.23;;;33.30;44.10;;;;;;4976770;28;20489;-67
2022/08/07 08:40:54;;;;;;;1.30;1.03;;;33.40;45.70;;;;;;4976629;28;20475;-67
2022/08/07 08:43:30;;;;;;;3.33;1.13;;;33.60;44.50;;;;;;4976692;28;20477;-68
2022/08/07 08:46:06;;;;;;;2.17;1.20;;;33.90;45.00;;;;;;4977180;28;20439;-68
2022/08/07 08:48:39;;;;;;;2.43;1.07;;;34.40;43.50;;;;;;4976499;28;20450;-69
2022/08/07 08:51:16;;;;;;;1.03;1.00;;;34.80;43.30;;;;;;4976042;28;20485;-69
2022/08/07 08:53:48;;;;;;;3.03;1.20;;;34.80;41.60;;;;;;4976435;28;20505;-69
2022/08/07 08:56:21;;;;;;;1.63;1.00;;;34.60;41.50;;;;;;4976401;28;20445;-70
2022/08/07 08:58:52;;;;;;;2.30;1.20;;;34.60;41.30;;;;;;4976284;28;20466;-69
2022/08/07 09:01:24;;;;;;;0.73;0.70;;;34.70;41.60;;;;;;4975957;28;20489;-69
2022/08/07 09:03:58;;;;;;;1.07;0.90;;;35.00;41.20;;;;;;4976352;28;20554;-70
2022/08/07 09:06:39;;;;;;;1.80;1.17;;;35.60;41.00;;;;;;4976188;28;20453;-69
2022/08/07 09:09:12;;;;;;;1.23;0.80;;;35.80;40.20;;;;;;4975760;28;20796;-69
2022/08/07 09:11:44;;;;;;;0.80;0.80;;;35.90;39.00;;;;;;4975782;28;20838;-69
2022/08/07 09:14:15;;;;;;;1.00;1.00;;;36.00;40.00;;;;;;4976144;28;20443;-70
2022/08/07 09:16:51;;;;;;;1.00;0.90;;;36.30;39.40;;;;;;4976040;28;20438;-69
2022/08/07 09:19:26;;;;;;;2.13;1.00;;;36.10;39.30;;;;;;4975940;28;20474;-69
2022/08/07 09:22:06;;;;;;;1.17;1.07;;;36.10;37.00;;;;;;4975879;28;20481;-68
2022/08/07 09:24:42;;;;;;;1.10;1.10;;;35.70;36.70;;;;;;4975844;28;20442;-68
2022/08/07 09:27:22;;;;;;;1.93;1.00;;;35.50;37.60;;;;;;4976331;28;20442;-68
2022/08/07 09:29:56;;;;;;;2.40;1.20;;;35.50;38.90;;;;;;4975671;28;20470;-68
2022/08/07 09:32:43;;;;;;;0.90;0.90;;;35.60;38.20;;;;;;4975660;28;20481;-68
2022/08/07 09:35:19;;;;;;;1.23;0.80;;;35.50;39.50;;;;;;4975678;28;20449;-68
2022/08/07 09:37:55;;;;;;;1.00;1.00;;;35.80;38.70;;;;;;4975148;28;20905;-69
2022/08/07 09:40:28;;;;;;;0.70;0.70;;;35.80;38.20;;;;;;4975586;28;20446;-69
2022/08/07 09:43:07;;;;;;;3.03;1.30;;;36.00;38.50;;;;;;4975480;28;20449;-68
2022/08/07 09:45:42;;;;;;;1.70;1.10;;;35.90;36.40;;;;;;4975367;28;20521;-67
2022/08/07 09:48:19;;;;;;;0.90;0.90;;;35.20;36.40;;;;;;4975457;28;20438;-68
2022/08/07 09:50:55;;;;;;;0.70;0.70;;;35.20;37.80;;;;;;4975264;28;20832;-69
2022/08/07 09:53:25;;;;;;;2.53;0.90;;;35.60;37.00;;;;;;4975084;28;20453;-69
2022/08/07 09:56:28;;;;;;;0.73;0.63;;;35.70;35.50;;;;;;4975207;28;20462;-69
2022/08/07 09:59:25;;;;;;;2.70;0.60;;;35.70;38.30;;;;;;4974911;28;20473;-69
2022/08/07 10:02:22;;;;;;;0.70;0.70;;;36.10;38.10;;;;;;4974446;28;20483;-68
2022/08/07 10:05:07;;;;;;;3.27;0.90;;;35.60;35.10;;;;;;4975730;28;20442;-66
2022/08/07 10:07:48;;;;;;;0.90;0.90;;;35.70;34.50;;;;;;4975275;28;20442;-66
2022/08/07 10:10:30;;;;;;;0.97;0.80;;;35.40;34.80;;;;;;4975261;28;20808;-65
2022/08/07 10:13:31;;;;;;;1.03;0.90;;;35.50;36.40;;;;;;4975297;28;20442;-66
2022/08/07 10:16:11;;;;;;;4.00;1.10;;;35.80;35.00;;;;;;4974814;28;20442;-63
2022/08/07 10:19:05;;;;;;;2.10;0.90;;;35.50;35.20;;;;;;4975311;28;20469;-62
2022/08/07 10:21:41;;;;;;;1.17;1.17;;;35.70;36.20;;;;;;4975452;28;20474;-63
2022/08/07 10:24:29;;;;;;;0.80;0.80;;;36.10;34.30;;;;;;4975062;28;20437;-67
2022/08/07 10:27:12;;;;;;;1.10;1.00;;;36.20;34.00;;;;;;4974775;28;20442;-66
2022/08/07 10:30:04;;;;;;;2.00;0.87;;;36.20;33.00;;;;;;4974781;28;20438;-64
2022/08/07 10:33:02;;;;;;;1.07;0.97;;;36.20;33.70;;;;;;4974773;28;20526;-64
2022/08/07 10:35:35;;;;;;;0.70;0.70;;;36.30;32.90;;;;;;4964363;28;20798;-64
2022/08/07 10:38:14;;;;;;;0.70;0.70;;;35.90;31.50;;;;;;4974880;28;20473;-63
2022/08/07 10:40:47;;;;;;;1.03;0.70;;;35.30;33.90;;;;;;4975123;28;20488;-63
2022/08/07 10:43:20;;;;;;;0.80;0.80;;;35.50;33.90;;;;;;4974922;28;20442;-64
2022/08/07 10:45:49;;;;;;;1.50;0.80;;;35.50;33.10;;;;;;4974575;28;20443;-63
2022/08/07 10:48:36;;;;;;;0.60;0.57;;;35.30;33.40;;;;;;4974566;28;20453;-63
2022/08/07 10:51:09;;;;;;;6.87;0.70;;;35.40;32.70;;;;;;4974750;28;20482;-63
2022/08/07 10:53:41;;;;;;;1.03;0.90;;;35.30;32.90;;;;;;4974757;28;20449;-63
2022/08/07 10:56:14;;;;;;;1.60;0.63;;;35.70;34.00;;;;;;4974634;28;20825;-63
2022/08/07 10:59:00;;;;;;;0.73;0.73;;;36.20;32.90;;;;;;4974682;28;20473;-63
2022/08/07 11:01:39;;;;;;;0.80;0.80;;;36.50;32.40;;;;;;4974365;28;20489;-63
2022/08/07 11:04:14;;;;;;;1.03;0.80;;;36.30;31.80;;;;;;4974683;28;20446;-63
2022/08/07 11:07:01;;;;;;;1.67;1.10;;;35.80;33.40;;;;;;4974722;28;20442;-63
2022/08/07 11:09:31;;;;;;;1.63;0.90;;;35.80;33.60;;;;;;4974988;28;20438;-62
2022/08/07 11:12:02;;;;;;;0.70;0.70;;;35.60;33.00;;;;;;4974865;28;20473;-65
2022/08/07 11:14:36;;;;;;;0.90;0.90;;;35.50;33.20;;;;;;4976698;28;20450;-64
2022/08/07 11:17:11;;;;;;;1.50;0.90;;;35.70;33.60;;;;;;4978466;28;20438;-64
2022/08/07 11:19:49;;;;;;;0.90;0.90;;;35.60;32.20;;;;;;4978333;28;20469;-65
2022/08/07 11:22:24;;;;;;;0.80;0.80;;;35.60;32.30;;;;;;4978353;28;20524;-65
2022/08/07 11:24:58;;;;;;;4.07;0.90;;;35.50;33.20;;;;;;4978235;28;20442;-65
2022/08/07 11:27:30;;;;;;;0.70;0.70;;;34.80;33.00;;;;;;4977932;28;20446;-65
2022/08/07 11:30:02;;;;;;;0.80;0.70;;;34.60;34.10;;;;;;4978173;28;20442;-65
2022/08/07 11:32:38;;;;;;;0.97;0.70;;;34.00;32.30;;;;;;4977946;28;20474;-65
2022/08/07 11:35:10;;;;;;;1.07;0.80;;;33.40;33.10;;;;;;4977969;28;20510;-64
2022/08/07 11:37:56;;;;;;;2.73;0.80;;;32.70;34.30;;;;;;4978175;28;20442;-64
2022/08/07 11:40:35;;;;;;;0.80;0.80;;;32.30;35.10;;;;;;4977704;28;20462;-64
2022/08/07 11:43:13;;;;;;;0.63;0.63;;;32.10;36.10;;;;;;4977970;28;20441;-64
2022/08/07 11:45:53;;;;;;;0.90;0.90;;;32.00;36.40;;;;;;4977854;28;20781;-64
2022/08/07 11:48:39;;;;;;;1.03;1.03;;;31.70;37.20;;;;;;4977774;28;20526;-64
2022/08/07 11:51:20;;;;;;;0.80;0.80;;;31.40;36.20;;;;;;4977673;28;20561;-64
2022/08/07 11:53:57;;;;;;;0.93;0.93;;;31.40;38.50;;;;;;4977689;28;20439;-62
2022/08/07 11:56:45;;;;;;;0.90;0.90;;;31.60;38.10;;;;;;4977063;28;20988;-64
2022/08/07 11:59:33;;;;;;;2.33;1.00;;;31.70;37.40;;;;;;4976986;28;20474;-64
2022/08/07 12:02:10;;;;;;;1.33;0.90;;;31.70;37.20;;;;;;4977161;28;20490;-63
2022/08/07 12:04:56;;;;;;;0.83;0.83;;;31.50;37.70;;;;;;4977378;28;20886;-63
2022/08/07 12:07:30;;;;;;;1.70;0.90;;;31.30;36.80;;;;;;4977673;28;20443;-62
2022/08/07 12:10:02;;;;;;;0.83;0.83;;;31.30;37.70;;;;;;4977219;28;20854;-63
2022/08/07 12:12:37;;;;;;;0.70;0.70;;;31.40;37.10;;;;;;4977176;28;20482;-63
2022/08/07 12:15:10;;;;;;;0.87;0.87;;;31.30;37.60;;;;;;4977140;28;20458;-64
2022/08/07 12:17:41;;;;;;;1.53;1.00;;;31.30;38.60;;;;;;4977178;28;20442;-64
2022/08/07 12:20:15;;;;;;;1.67;1.27;;;31.20;39.40;;;;;;4977132;28;20462;-64
2022/08/07 12:22:51;;;;;;;1.47;0.90;;;31.30;38.40;;;;;;4976954;28;20452;-64
2022/08/07 12:28:17;;;;;;;0.93;0.93;;;30.80;37.60;;;;;;4977012;28;20520;-63
2022/08/07 12:30:49;;;;;;;2.50;0.90;;;30.70;39.50;;;;;;4976590;28;20977;-63
2022/08/07 12:33:19;;;;;;;0.90;0.90;;;30.70;38.10;;;;;;4977157;28;20454;-63
2022/08/07 12:35:48;;;;;;;1.40;1.30;;;30.80;39.70;;;;;;4976740;28;20439;-63
2022/08/07 12:38:18;;;;;;;3.53;1.00;;;30.90;39.60;;;;;;4976496;28;20553;-63
2022/08/07 12:40:48;;;;;;;1.53;1.43;;;31.10;38.60;;;;;;4976721;28;20487;-63
2022/08/07 12:43:18;;;;;;;1.63;1.17;;;31.20;39.20;;;;;;4976471;28;20465;-64
2022/08/07 12:45:53;;;;;;;0.90;0.90;;;31.20;39.00;;;;;;4976859;28;20443;-63
2022/08/07 12:48:32;;;;;;;1.10;1.00;;;31.40;39.10;;;;;;4976834;28;20449;-68
2022/08/07 12:51:04;;;;;;;1.10;1.10;;;31.60;38.10;;;;;;4976652;28;20537;-64
2022/08/07 12:53:39;;;;;;;0.87;0.87;;;31.50;38.20;;;;;;4976620;28;20438;-63
2022/08/07 12:56:15;;;;;;;1.00;0.90;;;31.40;37.90;;;;;;4976766;28;20443;-64
2022/08/07 12:58:46;;;;;;;1.20;0.80;;;31.50;38.50;;;;;;4976455;28;20446;-63
2022/08/07 13:01:28;;;;;;;1.20;1.00;;;31.60;38.30;;;;;;4976449;28;20498;-62
2022/08/07 13:04:09;;;;;;;1.23;1.13;;;31.60;37.90;;;;;;4976390;28;20450;-62
2022/08/07 13:07:03;;;;;;;1.13;1.13;;;31.50;38.10;;;;;;4976764;28;20470;-64
2022/08/07 13:10:03;;;;;;;1.00;1.00;;;31.50;38.70;;;;;;4967530;28;20455;-63
2022/08/07 13:12:42;;;;;;;1.03;1.03;;;31.50;37.40;;;;;;4976066;28;20486;-64
2022/08/07 13:15:22;;;;;;;0.90;0.90;;;31.30;37.60;;;;;;4976450;28;20447;-65
2022/08/07 13:18:01;;;;;;;1.10;1.00;;;31.30;37.30;;;;;;4976207;28;20442;-65
2022/08/07 13:20:34;;;;;;;1.20;1.10;;;31.30;38.10;;;;;;4975560;28;20829;-65
2022/08/07 13:23:09;;;;;;;1.80;0.80;;;31.20;38.10;;;;;;4976418;28;20446;-64
2022/08/07 13:25:45;;;;;;;0.70;0.70;;;31.10;38.40;;;;;;4975966;28;20488;-65
2022/08/07 13:28:17;;;;;;;1.53;1.00;;;30.70;36.80;;;;;;4975940;28;20454;-65
2022/08/07 13:30:52;;;;;;;0.93;0.93;;;30.50;37.60;;;;;;4975885;28;20531;-66
2022/08/07 13:33:28;;;;;;;1.47;0.90;;;30.30;38.30;;;;;;4975948;28;20489;-66
2022/08/07 13:36:00;;;;;;;2.20;1.20;;;30.10;39.10;;;;;;4975832;28;20442;-65
2022/08/07 13:38:34;;;;;;;1.07;1.07;;;30.20;40.20;;;;;;4975746;28;20470;-65
2022/08/07 13:41:06;;;;;;;0.97;0.80;;;30.20;40.50;;;;;;4975532;28;20486;-66
2022/08/07 13:43:41;;;;;;;1.00;1.00;;;30.40;39.30;;;;;;4975382;28;20439;-65
2022/08/07 13:46:09;;;;;;;1.30;1.30;;;30.60;39.10;;;;;;4975713;28;20438;-66
2022/08/07 13:48:38;;;;;;;1.10;1.00;;;30.70;39.50;;;;;;4975494;28;20480;-66
2022/08/07 13:51:06;;;;;;;1.67;1.00;;;30.80;38.10;;;;;;4975458;28;20496;-66
2022/08/07 13:53:36;;;;;;;1.73;1.20;;;30.90;37.60;;;;;;4975404;28;20466;-65
2022/08/07 13:56:06;;;;;;;1.53;0.83;;;30.40;36.80;;;;;;4975782;28;20755;-65
2022/08/07 14:01:24;;;;;;;1.20;1.13;;;30.20;39.10;;;;;;4974969;28;20473;-65
2022/08/07 14:03:53;;;;;;;1.13;1.00;;;30.30;39.00;;;;;;4975500;28;20454;-65
2022/08/07 14:06:21;;;;;;;1.90;1.00;;;30.40;39.30;;;;;;4975283;28;20501;-65
2022/08/07 14:08:52;;;;;;;0.90;0.90;;;30.40;38.10;;;;;;4975177;28;20442;-65
2022/08/07 14:11:22;;;;;;;1.80;1.10;;;30.20;38.70;;;;;;4974996;28;20493;-65
2022/08/07 14:13:54;;;;;;;1.43;0.90;;;30.20;38.70;;;;;;4975175;28;20502;-65
2022/08/07 14:16:26;;;;;;;1.70;1.20;;;30.20;38.40;;;;;;4975858;28;20446;-65
2022/08/07 14:18:54;;;;;;;1.20;1.20;;;30.00;38.60;;;;;;4975231;28;20435;-64
2022/08/07 14:21:26;;;;;;;1.13;1.13;;;30.00;38.80;;;;;;4974789;28;21012;-65
2022/08/07 14:23:57;;;;;;;1.30;1.20;;;30.10;38.80;;;;;;4974653;28;20809;-65
2022/08/07 14:26:29;;;;;;;1.03;1.03;;;30.20;39.10;;;;;;4975031;28;20521;-65
2022/08/07 14:28:57;;;;;;;1.00;1.00;;;30.20;38.80;;;;;;4975035;28;20443;-65
2022/08/07 14:31:25;;;;;;;0.87;0.87;;;30.10;38.40;;;;;;4974870;28;20490;-65
2022/08/07 14:33:52;;;;;;;1.23;0.90;;;29.90;39.00;;;;;;4974912;28;20473;-65
2022/08/07 14:36:20;;;;;;;1.40;1.30;;;30.00;39.50;;;;;;4974867;28;20486;-65
2022/08/07 14:38:48;;;;;;;3.50;1.30;;;30.20;39.50;;;;;;4975084;28;20461;-65
2022/08/07 14:41:25;;;;;;;2.00;1.43;;;30.40;38.60;;;;;;4974653;28;20508;-64
2022/08/07 14:43:56;;;;;;;1.40;1.20;;;30.30;38.30;;;;;;4974709;28;20438;-64
2022/08/07 14:46:24;;;;;;;2.10;1.33;;;30.30;38.10;;;;;;4974728;28;20465;-64
2022/08/07 14:48:53;;;;;;;1.10;1.10;;;30.20;38.20;;;;;;4975559;28;20513;-64
2022/08/07 14:51:22;;;;;;;1.23;1.23;;;30.10;38.30;;;;;;4978485;28;20845;-64
2022/08/07 14:53:51;;;;;;;0.87;0.87;;;30.20;38.60;;;;;;4978174;28;20823;-65
2022/08/07 14:56:21;;;;;;;1.63;0.97;;;30.20;38.40;;;;;;4978073;28;20894;-65
2022/08/07 14:58:51;;;;;;;0.80;0.80;;;30.20;38.50;;;;;;4978377;28;20494;-65
2022/08/07 15:01:23;;;;;;;1.37;1.30;;;30.20;38.70;;;;;;4978367;28;20487;-64
2022/08/07 15:03:51;;;;;;;1.10;1.10;;;30.30;39.00;;;;;;4978484;28;20442;-64
2022/08/07 15:06:23;;;;;;;2.13;1.30;;;30.40;39.20;;;;;;4978985;28;20463;-64
2022/08/07 15:08:52;;;;;;;2.07;1.20;;;30.50;39.20;;;;;;4978303;28;20550;-64
2022/08/07 15:11:21;;;;;;;1.57;1.47;;;30.60;38.30;;;;;;4977833;28;20502;-63
2022/08/07 15:13:52;;;;;;;1.30;1.10;;;30.60;38.70;;;;;;4977971;28;20545;-64
2022/08/07 15:16:23;;;;;;;0.90;0.90;;;30.70;38.70;;;;;;4978368;28;20493;-64
2022/08/07 15:18:55;;;;;;;1.20;1.10;;;30.80;38.70;;;;;;4978112;28;20439;-65
2022/08/07 15:21:26;;;;;;;0.90;0.90;;;30.80;39.10;;;;;;4977670;28;20985;-63
2022/08/07 15:23:57;;;;;;;1.27;1.10;;;30.70;38.20;;;;;;4978193;28;20443;-64
2022/08/07 15:26:35;;;;;;;1.43;1.00;;;30.70;38.10;;;;;;4978043;28;20443;-64
2022/08/07 15:29:03;;;;;;;1.00;1.00;;;30.80;38.70;;;;;;4977915;28;20443;-64
2022/08/07 15:31:31;;;;;;;2.13;1.13;;;30.70;38.00;;;;;;4977841;28;20481;-63
2022/08/07 15:34:00;;;;;;;1.20;1.20;;;30.70;38.80;;;;;;4977500;28;21013;-64
2022/08/07 15:36:28;;;;;;;1.47;1.07;;;30.80;38.40;;;;;;4977579;28;20464;-64
2022/08/07 15:38:56;;;;;;;1.50;1.30;;;30.90;38.40;;;;;;4977354;28;20454;-64
2022/08/07 15:41:26;;;;;;;1.30;1.30;;;31.00;38.70;;;;;;4977613;28;20820;-63
2022/08/07 15:44:00;;;;;;;1.20;1.03;;;30.90;38.60;;;;;;4977573;28;20493;-65
2022/08/07 15:46:29;;;;;;;1.40;1.30;;;30.90;38.50;;;;;;4977711;28;20443;-64
2022/08/07 15:49:01;;;;;;;1.43;1.33;;;30.90;38.40;;;;;;4977473;28;20501;-64
2022/08/07 15:51:28;;;;;;;1.40;1.30;;;30.80;38.70;;;;;;4977369;28;20474;-63
2022/08/07 15:53:58;;;;;;;1.33;1.20;;;30.70;39.00;;;;;;4977452;28;20525;-64
2022/08/07 15:56:34;;;;;;;1.53;1.07;;;30.70;40.00;;;;;;4977240;28;20942;-64
2022/08/07 15:59:04;;;;;;;1.20;1.20;;;30.70;39.50;;;;;;4977068;28;20805;-64
2022/08/07 16:01:33;;;;;;;5.63;1.10;;;30.60;39.30;;;;;;4975644;28;20885;-63
2022/08/07 16:04:04;;;;;;;1.20;1.20;;;30.60;39.30;;;;;;4977218;28;20481;-63
2022/08/07 16:06:34;;;;;;;1.43;1.33;;;30.50;39.50;;;;;;4977299;28;20502;-61
2022/08/07 16:09:04;;;;;;;3.23;1.10;;;30.50;39.80;;;;;;4977096;28;20442;-61
2022/08/07 16:11:53;;;;;;;0.90;0.90;;;30.50;39.70;;;;;;4976944;28;20478;-61
2022/08/07 16:14:36;;;;;;;2.77;1.10;;;30.40;40.20;;;;;;4976997;28;20442;-61
2022/08/07 16:17:15;;;;;;;1.10;1.10;;;30.30;40.10;;;;;;4977733;28;20439;-61
2022/08/07 16:20:16;;;;;;;0.87;0.87;;;30.30;39.60;;;;;;4977036;28;20825;-62
2022/08/07 16:22:59;;;;;;;1.60;1.20;;;30.00;40.10;;;;;;4968353;28;20458;-61
2022/08/07 16:25:39;;;;;;;1.37;1.27;;;29.90;40.10;;;;;;4976991;28;20593;-61
2022/08/07 16:28:26;;;;;;;1.00;1.00;;;29.80;39.50;;;;;;4976926;28;20450;-62
2022/08/07 16:30:59;;;;;;;0.90;0.90;;;29.60;39.60;;;;;;4977129;28;20478;-62
2022/08/07 16:33:29;;;;;;;1.20;1.10;;;29.40;40.00;;;;;;4976794;28;20442;-62
2022/08/07 16:36:18;;;;;;;1.57;1.50;;;29.30;39.80;;;;;;4976845;28;20447;-62
2022/08/07 16:39:04;;;;;;;3.80;1.00;;;29.20;40.30;;;;;;4976849;28;20478;-62
2022/08/07 16:42:01;;;;;;;1.50;1.23;;;29.20;40.00;;;;;;4976524;28;20493;-62
2022/08/07 16:44:54;;;;;;;1.93;1.13;;;29.10;40.50;;;;;;4976695;28;20447;-63
2022/08/07 16:47:52;;;;;;;1.43;1.40;;;29.00;41.70;;;;;;4976602;28;20450;-62
2022/08/07 16:50:32;;;;;;;1.00;1.00;;;28.90;40.90;;;;;;4976909;28;20435;-62
2022/08/07 16:53:25;;;;;;;0.83;0.83;;;28.80;42.50;;;;;;4976357;28;20446;-62
2022/08/07 16:55:59;;;;;;;1.20;1.10;;;28.60;40.70;;;;;;4976549;28;20434;-61
2022/08/07 16:58:32;;;;;;;1.30;0.80;;;28.50;40.60;;;;;;4976085;28;20465;-61
2022/08/07 17:01:23;;;;;;;2.30;1.10;;;28.40;40.90;;;;;;4976000;28;20223;-61
2022/08/07 17:04:01;;;;;;;4.80;1.70;;;28.30;41.20;;;;;;4976319;28;20450;-63
2022/08/07 17:06:47;;;;;;;0.93;0.93;;;28.10;41.60;;;;;;4976329;28;20438;-63
2022/08/07 17:09:23;;;;;;;1.10;1.10;;;28.10;41.40;;;;;;4976229;28;20439;-62
2022/08/07 17:11:57;;;;;;;1.97;1.10;;;28.00;41.60;;;;;;4975916;28;20485;-62
2022/08/07 17:14:34;;;;;;;1.47;1.37;;;27.90;41.60;;;;;;4976437;28;20439;-63
2022/08/07 17:17:04;;;;;;;1.57;1.10;;;27.80;42.40;;;;;;4976419;28;20501;-63
2022/08/07 17:19:37;;;;;;;0.80;0.80;;;27.70;43.10;;;;;;4976130;28;20930;-62
2022/08/07 17:22:13;;;;;;;1.73;1.57;;;27.70;43.00;;;;;;4976206;28;20831;-63
2022/08/07 17:25:06;;;;;;;1.70;1.07;;;27.60;42.70;;;;;;4976242;28;20454;-63
2022/08/07 17:27:44;;;;;;;1.10;1.10;;;27.50;42.20;;;;;;4976258;28;20449;-63
2022/08/07 17:30:12;;;;;;;1.50;0.90;;;27.50;41.80;;;;;;4976068;28;20450;-63
2022/08/07 17:32:50;;;;;;;1.27;1.17;;;27.40;42.70;;;;;;4975725;28;20955;-62